sensor_id;sensor_type;location;lat;lon;timestamp;P1;durP1;ratioP1;P2;durP2;ratioP2
357;SDS011;167;47.558;7.602;2022-12-17T00:00:57;14.80;;;13.30;;
357;SDS011;167;47.558;7.602;2022-12-17T00:03:42;14.40;;;11.83;;
357;SDS011;167;47.558;7.602;2022-12-17T00:06:27;15.37;;;12.20;;
357;SDS011;167;47.558;7.602;2022-12-17T00:09:11;13.90;;;12.40;;
357;SDS011;167;47.558;7.602;2022-12-17T00:11:56;14.20;;;12.30;;
357;SDS011;167;47.558;7.602;2022-12-17T00:14:40;12.23;;;11.10;;
357;SDS011;167;47.558;7.602;2022-12-17T00:17:25;14.03;;;12.43;;
357;SDS011;167;47.558;7.602;2022-12-17T00:20:09;12.97;;;11.67;;
357;SDS011;167;47.558;7.602;2022-12-17T00:23:00;12.47;;;11.17;;
357;SDS011;167;47.558;7.602;2022-12-17T00:25:52;12.53;;;11.30;;
357;SDS011;167;47.558;7.602;2022-12-17T00:28:37;13.87;;;12.50;;
357;SDS011;167;47.558;7.602;2022-12-17T00:31:24;13.00;;;11.70;;
357;SDS011;167;47.558;7.602;2022-12-17T00:34:09;13.63;;;11.97;;
357;SDS011;167;47.558;7.602;2022-12-17T00:36:53;15.77;;;13.27;;
357;SDS011;167;47.558;7.602;2022-12-17T00:39:38;14.27;;;12.87;;
357;SDS011;167;47.558;7.602;2022-12-17T00:42:23;13.63;;;12.07;;
357;SDS011;167;47.558;7.602;2022-12-17T00:45:07;16.13;;;12.93;;
357;SDS011;167;47.558;7.602;2022-12-17T00:47:52;13.80;;;12.37;;
357;SDS011;167;47.558;7.602;2022-12-17T00:50:37;15.70;;;13.90;;
357;SDS011;167;47.558;7.602;2022-12-17T00:53:21;12.47;;;11.23;;
357;SDS011;167;47.558;7.602;2022-12-17T00:56:06;14.13;;;12.83;;
357;SDS011;167;47.558;7.602;2022-12-17T00:58:51;15.33;;;13.70;;
357;SDS011;167;47.558;7.602;2022-12-17T01:01:52;16.03;;;12.87;;
357;SDS011;167;47.558;7.602;2022-12-17T01:04:37;13.77;;;12.30;;
357;SDS011;167;47.558;7.602;2022-12-17T01:07:22;15.80;;;14.13;;
357;SDS011;167;47.558;7.602;2022-12-17T01:10:06;14.33;;;12.83;;
357;SDS011;167;47.558;7.602;2022-12-17T01:12:51;13.17;;;11.73;;
357;SDS011;167;47.558;7.602;2022-12-17T01:15:35;16.97;;;13.80;;
357;SDS011;167;47.558;7.602;2022-12-17T01:18:20;14.93;;;12.87;;
357;SDS011;167;47.558;7.602;2022-12-17T01:21:04;13.63;;;12.20;;
357;SDS011;167;47.558;7.602;2022-12-17T01:23:49;13.73;;;12.40;;
357;SDS011;167;47.558;7.602;2022-12-17T01:26:33;15.63;;;13.80;;
357;SDS011;167;47.558;7.602;2022-12-17T01:29:18;15.00;;;13.43;;
357;SDS011;167;47.558;7.602;2022-12-17T01:32:03;12.83;;;11.60;;
357;SDS011;167;47.558;7.602;2022-12-17T01:34:47;16.00;;;13.07;;
357;SDS011;167;47.558;7.602;2022-12-17T01:37:32;14.17;;;12.67;;
357;SDS011;167;47.558;7.602;2022-12-17T01:40:16;14.40;;;13.00;;
357;SDS011;167;47.558;7.602;2022-12-17T01:43:01;15.37;;;13.90;;
357;SDS011;167;47.558;7.602;2022-12-17T01:45:46;14.50;;;12.60;;
357;SDS011;167;47.558;7.602;2022-12-17T01:48:39;14.10;;;12.60;;
357;SDS011;167;47.558;7.602;2022-12-17T01:51:25;14.47;;;12.27;;
357;SDS011;167;47.558;7.602;2022-12-17T01:54:10;13.30;;;11.97;;
357;SDS011;167;47.558;7.602;2022-12-17T01:56:55;15.60;;;14.17;;
357;SDS011;167;47.558;7.602;2022-12-17T01:59:41;15.47;;;13.37;;
357;SDS011;167;47.558;7.602;2022-12-17T02:02:30;13.67;;;12.00;;
357;SDS011;167;47.558;7.602;2022-12-17T02:05:15;15.13;;;13.40;;
357;SDS011;167;47.558;7.602;2022-12-17T02:10:59;14.03;;;11.83;;
357;SDS011;167;47.558;7.602;2022-12-17T02:13:49;16.80;;;13.83;;
357;SDS011;167;47.558;7.602;2022-12-17T02:16:39;13.90;;;12.40;;
357;SDS011;167;47.558;7.602;2022-12-17T02:22:20;15.73;;;13.97;;
357;SDS011;167;47.558;7.602;2022-12-17T02:25:10;12.23;;;10.93;;
357;SDS011;167;47.558;7.602;2022-12-17T02:27:59;15.37;;;11.27;;
357;SDS011;167;47.558;7.602;2022-12-17T02:30:43;14.30;;;11.83;;
357;SDS011;167;47.558;7.602;2022-12-17T02:33:28;14.83;;;12.53;;
357;SDS011;167;47.558;7.602;2022-12-17T02:36:14;12.93;;;11.57;;
357;SDS011;167;47.558;7.602;2022-12-17T02:38:58;12.93;;;11.63;;
357;SDS011;167;47.558;7.602;2022-12-17T02:41:47;14.03;;;10.87;;
357;SDS011;167;47.558;7.602;2022-12-17T02:44:32;15.47;;;12.93;;
357;SDS011;167;47.558;7.602;2022-12-17T02:47:18;13.73;;;12.33;;
357;SDS011;167;47.558;7.602;2022-12-17T02:50:04;16.20;;;13.20;;
357;SDS011;167;47.558;7.602;2022-12-17T02:52:49;16.83;;;13.70;;
357;SDS011;167;47.558;7.602;2022-12-17T02:55:34;18.53;;;14.17;;
357;SDS011;167;47.558;7.602;2022-12-17T02:58:19;16.03;;;14.27;;
357;SDS011;167;47.558;7.602;2022-12-17T03:01:04;15.20;;;12.57;;
357;SDS011;167;47.558;7.602;2022-12-17T03:03:48;15.73;;;13.90;;
357;SDS011;167;47.558;7.602;2022-12-17T03:06:33;17.07;;;13.23;;
357;SDS011;167;47.558;7.602;2022-12-17T03:09:18;15.80;;;13.20;;
357;SDS011;167;47.558;7.602;2022-12-17T03:12:02;14.97;;;12.47;;
357;SDS011;167;47.558;7.602;2022-12-17T03:14:47;15.03;;;13.30;;
357;SDS011;167;47.558;7.602;2022-12-17T03:17:32;13.97;;;12.47;;
357;SDS011;167;47.558;7.602;2022-12-17T03:20:16;16.20;;;12.37;;
357;SDS011;167;47.558;7.602;2022-12-17T03:23:10;14.40;;;13.00;;
357;SDS011;167;47.558;7.602;2022-12-17T03:25:58;15.50;;;12.87;;
357;SDS011;167;47.558;7.602;2022-12-17T03:28:43;14.63;;;13.17;;
357;SDS011;167;47.558;7.602;2022-12-17T03:31:28;13.93;;;12.50;;
357;SDS011;167;47.558;7.602;2022-12-17T03:34:12;15.93;;;12.60;;
357;SDS011;167;47.558;7.602;2022-12-17T03:36:56;14.90;;;13.37;;
357;SDS011;167;47.558;7.602;2022-12-17T03:39:41;16.13;;;14.43;;
357;SDS011;167;47.558;7.602;2022-12-17T03:42:25;15.20;;;13.10;;
357;SDS011;167;47.558;7.602;2022-12-17T03:45:10;16.10;;;13.30;;
357;SDS011;167;47.558;7.602;2022-12-17T03:48:07;17.50;;;14.60;;
357;SDS011;167;47.558;7.602;2022-12-17T03:50:53;15.43;;;13.83;;
357;SDS011;167;47.558;7.602;2022-12-17T03:53:38;19.23;;;14.03;;
357;SDS011;167;47.558;7.602;2022-12-17T03:56:23;13.60;;;11.47;;
357;SDS011;167;47.558;7.602;2022-12-17T03:59:07;15.33;;;12.43;;
357;SDS011;167;47.558;7.602;2022-12-17T04:01:52;15.83;;;13.43;;
357;SDS011;167;47.558;7.602;2022-12-17T04:04:41;15.40;;;13.40;;
357;SDS011;167;47.558;7.602;2022-12-17T04:07:25;14.67;;;12.23;;
357;SDS011;167;47.558;7.602;2022-12-17T04:10:10;18.10;;;13.77;;
357;SDS011;167;47.558;7.602;2022-12-17T04:12:55;15.60;;;12.13;;
357;SDS011;167;47.558;7.602;2022-12-17T04:15:39;16.73;;;12.90;;
357;SDS011;167;47.558;7.602;2022-12-17T04:18:24;17.27;;;14.00;;
357;SDS011;167;47.558;7.602;2022-12-17T04:21:08;11.60;;;10.50;;
357;SDS011;167;47.558;7.602;2022-12-17T04:23:53;16.10;;;12.83;;
357;SDS011;167;47.558;7.602;2022-12-17T04:26:37;17.17;;;13.03;;
357;SDS011;167;47.558;7.602;2022-12-17T04:29:22;16.63;;;12.00;;
357;SDS011;167;47.558;7.602;2022-12-17T04:32:06;16.50;;;11.30;;
357;SDS011;167;47.558;7.602;2022-12-17T04:34:51;12.87;;;10.10;;
357;SDS011;167;47.558;7.602;2022-12-17T04:37:36;10.30;;;9.17;;
357;SDS011;167;47.558;7.602;2022-12-17T04:40:20;13.93;;;9.70;;
357;SDS011;167;47.558;7.602;2022-12-17T04:43:09;12.90;;;9.97;;
357;SDS011;167;47.558;7.602;2022-12-17T04:45:54;12.10;;;10.07;;
357;SDS011;167;47.558;7.602;2022-12-17T04:48:38;13.10;;;10.53;;
357;SDS011;167;47.558;7.602;2022-12-17T04:51:23;11.37;;;8.63;;
357;SDS011;167;47.558;7.602;2022-12-17T04:54:08;12.63;;;9.33;;
357;SDS011;167;47.558;7.602;2022-12-17T04:56:53;13.20;;;9.23;;
357;SDS011;167;47.558;7.602;2022-12-17T04:59:37;10.63;;;9.17;;
357;SDS011;167;47.558;7.602;2022-12-17T05:02:22;11.50;;;10.27;;
357;SDS011;167;47.558;7.602;2022-12-17T05:05:06;11.50;;;10.03;;
357;SDS011;167;47.558;7.602;2022-12-17T05:07:55;12.47;;;10.17;;
357;SDS011;167;47.558;7.602;2022-12-17T05:10:40;13.17;;;10.60;;
357;SDS011;167;47.558;7.602;2022-12-17T05:13:24;11.17;;;9.97;;
357;SDS011;167;47.558;7.602;2022-12-17T05:16:09;12.40;;;10.07;;
357;SDS011;167;47.558;7.602;2022-12-17T05:18:53;10.67;;;9.57;;
357;SDS011;167;47.558;7.602;2022-12-17T05:21:38;9.60;;;8.07;;
357;SDS011;167;47.558;7.602;2022-12-17T05:24:22;11.63;;;8.93;;
357;SDS011;167;47.558;7.602;2022-12-17T05:27:07;13.40;;;10.43;;
357;SDS011;167;47.558;7.602;2022-12-17T05:29:52;10.83;;;9.70;;
357;SDS011;167;47.558;7.602;2022-12-17T05:32:36;11.90;;;9.10;;
357;SDS011;167;47.558;7.602;2022-12-17T05:35:21;11.73;;;9.90;;
357;SDS011;167;47.558;7.602;2022-12-17T05:38:06;12.47;;;10.50;;
357;SDS011;167;47.558;7.602;2022-12-17T05:40:54;11.40;;;10.20;;
357;SDS011;167;47.558;7.602;2022-12-17T05:43:39;12.60;;;10.43;;
357;SDS011;167;47.558;7.602;2022-12-17T05:46:24;11.90;;;10.30;;
357;SDS011;167;47.558;7.602;2022-12-17T05:49:09;13.10;;;10.40;;
357;SDS011;167;47.558;7.602;2022-12-17T05:51:53;11.70;;;10.30;;
357;SDS011;167;47.558;7.602;2022-12-17T05:54:38;13.83;;;11.53;;
357;SDS011;167;47.558;7.602;2022-12-17T05:57:22;12.37;;;9.50;;
357;SDS011;167;47.558;7.602;2022-12-17T06:00:07;13.20;;;9.80;;
357;SDS011;167;47.558;7.602;2022-12-17T06:02:56;13.43;;;10.33;;
357;SDS011;167;47.558;7.602;2022-12-17T06:05:41;10.23;;;8.80;;
357;SDS011;167;47.558;7.602;2022-12-17T06:08:26;8.93;;;8.00;;
357;SDS011;167;47.558;7.602;2022-12-17T06:11:10;10.53;;;9.17;;
357;SDS011;167;47.558;7.602;2022-12-17T06:13:55;10.40;;;9.10;;
357;SDS011;167;47.558;7.602;2022-12-17T06:16:39;10.57;;;9.47;;
357;SDS011;167;47.558;7.602;2022-12-17T06:19:24;10.40;;;9.10;;
357;SDS011;167;47.558;7.602;2022-12-17T06:22:08;14.43;;;10.40;;
357;SDS011;167;47.558;7.602;2022-12-17T06:24:53;10.07;;;8.03;;
357;SDS011;167;47.558;7.602;2022-12-17T06:27:38;13.60;;;9.20;;
357;SDS011;167;47.558;7.602;2022-12-17T06:30:22;12.30;;;10.20;;
357;SDS011;167;47.558;7.602;2022-12-17T06:33:08;13.47;;;10.30;;
357;SDS011;167;47.558;7.602;2022-12-17T06:35:53;10.70;;;9.23;;
357;SDS011;167;47.558;7.602;2022-12-17T06:38:37;10.03;;;7.80;;
357;SDS011;167;47.558;7.602;2022-12-17T06:41:22;13.47;;;9.57;;
357;SDS011;167;47.558;7.602;2022-12-17T06:44:06;14.10;;;8.63;;
357;SDS011;167;47.558;7.602;2022-12-17T06:46:51;10.40;;;9.17;;
357;SDS011;167;47.558;7.602;2022-12-17T06:49:35;10.40;;;9.37;;
357;SDS011;167;47.558;7.602;2022-12-17T06:52:20;10.30;;;8.80;;
357;SDS011;167;47.558;7.602;2022-12-17T06:55:05;11.40;;;10.20;;
357;SDS011;167;47.558;7.602;2022-12-17T06:57:56;11.80;;;10.00;;
357;SDS011;167;47.558;7.602;2022-12-17T07:00:41;8.97;;;7.97;;
357;SDS011;167;47.558;7.602;2022-12-17T07:03:25;13.77;;;11.10;;
357;SDS011;167;47.558;7.602;2022-12-17T07:06:10;11.13;;;9.57;;
357;SDS011;167;47.558;7.602;2022-12-17T07:08:54;13.43;;;10.87;;
357;SDS011;167;47.558;7.602;2022-12-17T07:11:39;10.13;;;8.90;;
357;SDS011;167;47.558;7.602;2022-12-17T07:14:23;11.80;;;9.70;;
357;SDS011;167;47.558;7.602;2022-12-17T07:17:08;11.43;;;9.63;;
357;SDS011;167;47.558;7.602;2022-12-17T07:19:53;12.67;;;10.47;;
357;SDS011;167;47.558;7.602;2022-12-17T07:22:37;11.63;;;10.17;;
357;SDS011;167;47.558;7.602;2022-12-17T07:25:22;12.17;;;10.50;;
357;SDS011;167;47.558;7.602;2022-12-17T07:28:06;10.00;;;8.70;;
357;SDS011;167;47.558;7.602;2022-12-17T07:30:51;11.70;;;9.57;;
357;SDS011;167;47.558;7.602;2022-12-17T07:33:35;12.07;;;10.83;;
357;SDS011;167;47.558;7.602;2022-12-17T07:36:20;12.00;;;10.30;;
357;SDS011;167;47.558;7.602;2022-12-17T07:39:04;9.80;;;8.80;;
357;SDS011;167;47.558;7.602;2022-12-17T07:41:49;12.90;;;9.83;;
357;SDS011;167;47.558;7.602;2022-12-17T07:44:33;11.70;;;10.07;;
357;SDS011;167;47.558;7.602;2022-12-17T07:47:18;12.77;;;8.87;;
357;SDS011;167;47.558;7.602;2022-12-17T07:50:03;12.80;;;9.40;;
357;SDS011;167;47.558;7.602;2022-12-17T07:52:56;11.40;;;9.73;;
357;SDS011;167;47.558;7.602;2022-12-17T07:55:41;11.67;;;9.40;;
357;SDS011;167;47.558;7.602;2022-12-17T07:58:25;11.90;;;10.10;;
357;SDS011;167;47.558;7.602;2022-12-17T08:01:10;11.43;;;9.43;;
357;SDS011;167;47.558;7.602;2022-12-17T08:03:54;11.40;;;9.70;;
357;SDS011;167;47.558;7.602;2022-12-17T08:06:43;11.90;;;10.17;;
357;SDS011;167;47.558;7.602;2022-12-17T08:09:28;12.37;;;11.07;;
357;SDS011;167;47.558;7.602;2022-12-17T08:12:14;11.30;;;9.63;;
357;SDS011;167;47.558;7.602;2022-12-17T08:14:58;14.30;;;11.30;;
357;SDS011;167;47.558;7.602;2022-12-17T08:17:43;12.20;;;9.90;;
357;SDS011;167;47.558;7.602;2022-12-17T08:20:28;12.83;;;9.00;;
357;SDS011;167;47.558;7.602;2022-12-17T08:23:13;11.37;;;10.17;;
357;SDS011;167;47.558;7.602;2022-12-17T08:25:57;11.27;;;9.77;;
357;SDS011;167;47.558;7.602;2022-12-17T08:28:42;12.83;;;10.00;;
357;SDS011;167;47.558;7.602;2022-12-17T08:31:26;12.40;;;9.70;;
357;SDS011;167;47.558;7.602;2022-12-17T08:34:11;11.57;;;9.37;;
357;SDS011;167;47.558;7.602;2022-12-17T08:36:55;12.80;;;8.77;;
357;SDS011;167;47.558;7.602;2022-12-17T08:39:40;13.00;;;9.23;;
357;SDS011;167;47.558;7.602;2022-12-17T08:42:24;11.57;;;9.20;;
357;SDS011;167;47.558;7.602;2022-12-17T08:45:09;9.07;;;8.17;;
357;SDS011;167;47.558;7.602;2022-12-17T08:48:00;9.07;;;8.17;;
357;SDS011;167;47.558;7.602;2022-12-17T08:50:45;9.57;;;8.43;;
357;SDS011;167;47.558;7.602;2022-12-17T08:53:30;10.80;;;9.23;;
357;SDS011;167;47.558;7.602;2022-12-17T08:56:14;15.93;;;8.90;;
357;SDS011;167;47.558;7.602;2022-12-17T08:58:59;11.37;;;8.67;;
357;SDS011;167;47.558;7.602;2022-12-17T09:01:43;9.13;;;8.23;;
357;SDS011;167;47.558;7.602;2022-12-17T09:04:28;13.60;;;9.70;;
357;SDS011;167;47.558;7.602;2022-12-17T09:07:12;10.90;;;9.80;;
357;SDS011;167;47.558;7.602;2022-12-17T09:09:57;10.00;;;8.80;;
357;SDS011;167;47.558;7.602;2022-12-17T09:12:41;10.50;;;7.93;;
357;SDS011;167;47.558;7.602;2022-12-17T09:15:26;11.33;;;9.20;;
357;SDS011;167;47.558;7.602;2022-12-17T09:18:10;10.53;;;8.77;;
357;SDS011;167;47.558;7.602;2022-12-17T09:20:55;10.27;;;8.53;;
357;SDS011;167;47.558;7.602;2022-12-17T09:23:39;10.60;;;9.13;;
357;SDS011;167;47.558;7.602;2022-12-17T09:26:24;12.23;;;11.00;;
357;SDS011;167;47.558;7.602;2022-12-17T09:29:13;9.17;;;8.23;;
357;SDS011;167;47.558;7.602;2022-12-17T09:31:58;11.50;;;9.70;;
357;SDS011;167;47.558;7.602;2022-12-17T09:34:43;10.10;;;9.10;;
357;SDS011;167;47.558;7.602;2022-12-17T09:37:27;11.17;;;9.90;;
357;SDS011;167;47.558;7.602;2022-12-17T09:40:15;12.13;;;10.83;;
357;SDS011;167;47.558;7.602;2022-12-17T09:43:04;12.37;;;10.23;;
357;SDS011;167;47.558;7.602;2022-12-17T09:45:54;9.23;;;8.37;;
357;SDS011;167;47.558;7.602;2022-12-17T09:51:26;13.23;;;10.10;;
357;SDS011;167;47.558;7.602;2022-12-17T09:57:05;11.67;;;9.47;;
357;SDS011;167;47.558;7.602;2022-12-17T09:59:52;10.63;;;9.60;;
357;SDS011;167;47.558;7.602;2022-12-17T10:02:37;9.33;;;8.40;;
357;SDS011;167;47.558;7.602;2022-12-17T10:05:23;9.60;;;8.20;;
357;SDS011;167;47.558;7.602;2022-12-17T10:08:11;11.50;;;9.53;;
357;SDS011;167;47.558;7.602;2022-12-17T10:10:57;10.60;;;9.23;;
357;SDS011;167;47.558;7.602;2022-12-17T10:13:44;10.73;;;9.73;;
357;SDS011;167;47.558;7.602;2022-12-17T10:16:31;9.13;;;8.23;;
357;SDS011;167;47.558;7.602;2022-12-17T10:19:51;10.50;;;9.40;;
357;SDS011;167;47.558;7.602;2022-12-17T10:22:27;12.37;;;10.47;;
357;SDS011;167;47.558;7.602;2022-12-17T10:27:59;13.07;;;10.10;;
357;SDS011;167;47.558;7.602;2022-12-17T10:30:44;12.63;;;10.27;;
357;SDS011;167;47.558;7.602;2022-12-17T10:33:35;10.63;;;9.50;;
357;SDS011;167;47.558;7.602;2022-12-17T10:36:20;12.40;;;11.20;;
357;SDS011;167;47.558;7.602;2022-12-17T10:39:05;11.63;;;10.53;;
357;SDS011;167;47.558;7.602;2022-12-17T10:41:55;12.93;;;11.63;;
357;SDS011;167;47.558;7.602;2022-12-17T10:44:40;14.30;;;12.90;;
357;SDS011;167;47.558;7.602;2022-12-17T10:47:25;11.67;;;10.67;;
357;SDS011;167;47.558;7.602;2022-12-17T10:50:11;13.70;;;12.47;;
357;SDS011;167;47.558;7.602;2022-12-17T10:52:56;12.40;;;11.20;;
357;SDS011;167;47.558;7.602;2022-12-17T10:55:51;11.77;;;10.73;;
357;SDS011;167;47.558;7.602;2022-12-17T10:58:41;11.93;;;10.83;;
357;SDS011;167;47.558;7.602;2022-12-17T11:01:26;12.77;;;11.57;;
357;SDS011;167;47.558;7.602;2022-12-17T11:07:08;13.20;;;12.00;;
357;SDS011;167;47.558;7.602;2022-12-17T11:09:54;12.90;;;11.70;;
357;SDS011;167;47.558;7.602;2022-12-17T11:12:41;13.53;;;10.70;;
357;SDS011;167;47.558;7.602;2022-12-17T11:21:32;13.70;;;12.50;;
357;SDS011;167;47.558;7.602;2022-12-17T11:24:21;12.23;;;11.23;;
357;SDS011;167;47.558;7.602;2022-12-17T11:27:09;12.90;;;11.80;;
357;SDS011;167;47.558;7.602;2022-12-17T11:29:56;13.07;;;12.07;;
357;SDS011;167;47.558;7.602;2022-12-17T11:41:07;13.23;;;12.17;;
357;SDS011;167;47.558;7.602;2022-12-17T11:46:51;13.57;;;12.50;;
357;SDS011;167;47.558;7.602;2022-12-17T12:04:04;13.73;;;12.50;;
357;SDS011;167;47.558;7.602;2022-12-17T12:10:17;12.03;;;10.93;;
357;SDS011;167;47.558;7.602;2022-12-17T12:16:04;12.23;;;11.00;;
357;SDS011;167;47.558;7.602;2022-12-17T12:30:23;11.33;;;10.43;;
357;SDS011;167;47.558;7.602;2022-12-17T12:36:02;12.83;;;11.70;;
357;SDS011;167;47.558;7.602;2022-12-17T12:38:50;13.60;;;12.30;;
357;SDS011;167;47.558;7.602;2022-12-17T12:47:12;12.50;;;11.23;;
357;SDS011;167;47.558;7.602;2022-12-17T12:50:04;14.20;;;12.57;;
357;SDS011;167;47.558;7.602;2022-12-17T12:52:53;13.13;;;11.93;;
357;SDS011;167;47.558;7.602;2022-12-17T12:55:48;12.73;;;11.53;;
357;SDS011;167;47.558;7.602;2022-12-17T12:58:33;12.90;;;11.50;;
357;SDS011;167;47.558;7.602;2022-12-17T13:01:18;13.80;;;12.50;;
357;SDS011;167;47.558;7.602;2022-12-17T13:04:26;11.47;;;10.43;;
357;SDS011;167;47.558;7.602;2022-12-17T13:07:22;14.37;;;13.03;;
357;SDS011;167;47.558;7.602;2022-12-17T13:09:50;15.77;;;13.50;;
357;SDS011;167;47.558;7.602;2022-12-17T13:13:05;13.17;;;11.80;;
357;SDS011;167;47.558;7.602;2022-12-17T13:17:39;15.40;;;13.77;;
357;SDS011;167;47.558;7.602;2022-12-17T13:22:48;15.57;;;11.87;;
357;SDS011;167;47.558;7.602;2022-12-17T13:25:16;13.13;;;11.73;;
357;SDS011;167;47.558;7.602;2022-12-17T13:27:42;13.10;;;10.43;;
357;SDS011;167;47.558;7.602;2022-12-17T13:35:40;12.87;;;11.30;;
357;SDS011;167;47.558;7.602;2022-12-17T13:40:44;12.90;;;11.37;;
357;SDS011;167;47.558;7.602;2022-12-17T13:43:19;14.27;;;11.90;;
357;SDS011;167;47.558;7.602;2022-12-17T13:45:46;13.40;;;11.90;;
357;SDS011;167;47.558;7.602;2022-12-17T13:48:20;13.53;;;12.00;;
357;SDS011;167;47.558;7.602;2022-12-17T13:51:03;13.53;;;12.13;;
357;SDS011;167;47.558;7.602;2022-12-17T13:53:30;13.10;;;11.10;;
357;SDS011;167;47.558;7.602;2022-12-17T13:55:58;16.20;;;12.53;;
357;SDS011;167;47.558;7.602;2022-12-17T13:58:25;14.93;;;12.20;;
357;SDS011;167;47.558;7.602;2022-12-17T14:01:02;12.70;;;11.27;;
357;SDS011;167;47.558;7.602;2022-12-17T14:03:28;14.63;;;10.40;;
357;SDS011;167;47.558;7.602;2022-12-17T14:05:55;11.90;;;10.40;;
357;SDS011;167;47.558;7.602;2022-12-17T14:08:21;12.13;;;9.80;;
357;SDS011;167;47.558;7.602;2022-12-17T14:10:52;11.33;;;10.07;;
357;SDS011;167;47.558;7.602;2022-12-17T14:13:42;12.57;;;11.23;;
357;SDS011;167;47.558;7.602;2022-12-17T14:16:09;15.87;;;11.57;;
357;SDS011;167;47.558;7.602;2022-12-17T14:18:39;11.30;;;9.93;;
357;SDS011;167;47.558;7.602;2022-12-17T14:21:08;15.30;;;11.97;;
357;SDS011;167;47.558;7.602;2022-12-17T14:23:34;11.73;;;10.53;;
357;SDS011;167;47.558;7.602;2022-12-17T14:26:00;12.30;;;11.10;;
357;SDS011;167;47.558;7.602;2022-12-17T14:28:33;14.37;;;11.07;;
357;SDS011;167;47.558;7.602;2022-12-17T14:31:06;14.40;;;12.07;;
357;SDS011;167;47.558;7.602;2022-12-17T14:33:33;13.50;;;10.83;;
357;SDS011;167;47.558;7.602;2022-12-17T14:36:01;12.93;;;11.23;;
357;SDS011;167;47.558;7.602;2022-12-17T14:38:28;13.30;;;11.87;;
357;SDS011;167;47.558;7.602;2022-12-17T14:40:54;15.80;;;12.67;;
357;SDS011;167;47.558;7.602;2022-12-17T14:43:26;16.47;;;13.03;;
357;SDS011;167;47.558;7.602;2022-12-17T14:45:59;18.30;;;14.20;;
357;SDS011;167;47.558;7.602;2022-12-17T14:48:44;13.53;;;11.37;;
357;SDS011;167;47.558;7.602;2022-12-17T14:54:04;13.43;;;11.80;;
357;SDS011;167;47.558;7.602;2022-12-17T14:56:30;13.60;;;11.73;;
357;SDS011;167;47.558;7.602;2022-12-17T14:58:56;17.10;;;15.30;;
357;SDS011;167;47.558;7.602;2022-12-17T15:01:22;17.63;;;14.03;;
357;SDS011;167;47.558;7.602;2022-12-17T15:03:48;16.37;;;13.60;;
357;SDS011;167;47.558;7.602;2022-12-17T15:06:15;15.93;;;13.50;;
357;SDS011;167;47.558;7.602;2022-12-17T15:08:42;17.70;;;13.23;;
357;SDS011;167;47.558;7.602;2022-12-17T15:11:10;18.47;;;14.07;;
357;SDS011;167;47.558;7.602;2022-12-17T15:13:37;14.30;;;11.47;;
357;SDS011;167;47.558;7.602;2022-12-17T15:16:03;13.20;;;10.67;;
357;SDS011;167;47.558;7.602;2022-12-17T15:18:29;14.30;;;11.30;;
357;SDS011;167;47.558;7.602;2022-12-17T15:20:55;16.83;;;12.50;;
357;SDS011;167;47.558;7.602;2022-12-17T15:23:21;16.40;;;11.20;;
357;SDS011;167;47.558;7.602;2022-12-17T15:25:48;13.43;;;12.07;;
357;SDS011;167;47.558;7.602;2022-12-17T15:28:15;14.23;;;11.40;;
357;SDS011;167;47.558;7.602;2022-12-17T15:30:41;17.53;;;12.87;;
357;SDS011;167;47.558;7.602;2022-12-17T15:33:08;15.83;;;13.23;;
357;SDS011;167;47.558;7.602;2022-12-17T15:35:34;19.03;;;14.07;;
357;SDS011;167;47.558;7.602;2022-12-17T15:38:01;17.53;;;14.33;;
357;SDS011;167;47.558;7.602;2022-12-17T15:40:27;18.83;;;13.17;;
357;SDS011;167;47.558;7.602;2022-12-17T15:42:53;18.40;;;14.33;;
357;SDS011;167;47.558;7.602;2022-12-17T15:45:38;16.70;;;12.43;;
357;SDS011;167;47.558;7.602;2022-12-17T15:48:04;18.33;;;13.37;;
357;SDS011;167;47.558;7.602;2022-12-17T15:50:30;17.20;;;13.53;;
357;SDS011;167;47.558;7.602;2022-12-17T15:52:56;15.63;;;12.70;;
357;SDS011;167;47.558;7.602;2022-12-17T15:55:22;19.60;;;14.00;;
357;SDS011;167;47.558;7.602;2022-12-17T15:57:48;22.50;;;14.67;;
357;SDS011;167;47.558;7.602;2022-12-17T16:00:14;18.40;;;13.10;;
357;SDS011;167;47.558;7.602;2022-12-17T16:02:40;20.00;;;13.70;;
357;SDS011;167;47.558;7.602;2022-12-17T16:05:06;19.60;;;13.63;;
357;SDS011;167;47.558;7.602;2022-12-17T16:07:32;15.87;;;13.33;;
357;SDS011;167;47.558;7.602;2022-12-17T16:09:58;17.23;;;14.00;;
357;SDS011;167;47.558;7.602;2022-12-17T16:12:24;19.67;;;13.70;;
357;SDS011;167;47.558;7.602;2022-12-17T16:14:50;15.17;;;12.77;;
357;SDS011;167;47.558;7.602;2022-12-17T16:17:16;21.10;;;13.27;;
357;SDS011;167;47.558;7.602;2022-12-17T16:19:42;14.43;;;11.93;;
357;SDS011;167;47.558;7.602;2022-12-17T16:22:08;18.93;;;14.47;;
357;SDS011;167;47.558;7.602;2022-12-17T16:24:34;18.03;;;12.93;;
357;SDS011;167;47.558;7.602;2022-12-17T16:27:00;22.47;;;15.03;;
357;SDS011;167;47.558;7.602;2022-12-17T16:29:27;20.13;;;14.23;;
357;SDS011;167;47.558;7.602;2022-12-17T16:31:53;18.37;;;14.17;;
357;SDS011;167;47.558;7.602;2022-12-17T16:34:19;20.00;;;14.57;;
357;SDS011;167;47.558;7.602;2022-12-17T16:36:45;17.47;;;13.43;;
357;SDS011;167;47.558;7.602;2022-12-17T16:39:14;19.50;;;15.10;;
357;SDS011;167;47.558;7.602;2022-12-17T16:41:41;18.80;;;14.90;;
357;SDS011;167;47.558;7.602;2022-12-17T16:44:07;21.93;;;15.43;;
357;SDS011;167;47.558;7.602;2022-12-17T16:46:34;19.53;;;15.70;;
357;SDS011;167;47.558;7.602;2022-12-17T16:49:11;21.83;;;15.57;;
357;SDS011;167;47.558;7.602;2022-12-17T16:51:37;21.23;;;15.17;;
357;SDS011;167;47.558;7.602;2022-12-17T16:54:05;23.23;;;15.13;;
357;SDS011;167;47.558;7.602;2022-12-17T16:56:32;22.80;;;15.30;;
357;SDS011;167;47.558;7.602;2022-12-17T16:58:58;20.20;;;14.27;;
357;SDS011;167;47.558;7.602;2022-12-17T17:01:25;18.57;;;13.30;;
357;SDS011;167;47.558;7.602;2022-12-17T17:03:52;22.40;;;14.90;;
357;SDS011;167;47.558;7.602;2022-12-17T17:06:19;18.07;;;14.27;;
357;SDS011;167;47.558;7.602;2022-12-17T17:08:45;16.50;;;13.20;;
357;SDS011;167;47.558;7.602;2022-12-17T17:13:37;21.37;;;14.70;;
357;SDS011;167;47.558;7.602;2022-12-17T17:16:04;19.63;;;13.20;;
357;SDS011;167;47.558;7.602;2022-12-17T17:18:30;23.73;;;14.57;;
357;SDS011;167;47.558;7.602;2022-12-17T17:23:58;18.00;;;13.50;;
357;SDS011;167;47.558;7.602;2022-12-17T17:26:28;25.80;;;15.97;;
357;SDS011;167;47.558;7.602;2022-12-17T17:28:55;18.40;;;14.23;;
357;SDS011;167;47.558;7.602;2022-12-17T17:31:21;21.37;;;15.10;;
357;SDS011;167;47.558;7.602;2022-12-17T17:33:48;20.97;;;14.90;;
357;SDS011;167;47.558;7.602;2022-12-17T17:36:16;29.70;;;19.10;;
357;SDS011;167;47.558;7.602;2022-12-17T17:38:42;21.27;;;13.67;;
357;SDS011;167;47.558;7.602;2022-12-17T17:41:10;16.03;;;12.27;;
357;SDS011;167;47.558;7.602;2022-12-17T17:43:36;22.40;;;15.80;;
357;SDS011;167;47.558;7.602;2022-12-17T17:46:10;18.47;;;12.80;;
357;SDS011;167;47.558;7.602;2022-12-17T17:48:36;19.97;;;13.30;;
357;SDS011;167;47.558;7.602;2022-12-17T17:51:06;23.07;;;15.20;;
357;SDS011;167;47.558;7.602;2022-12-17T17:53:33;22.73;;;15.27;;
357;SDS011;167;47.558;7.602;2022-12-17T17:56:33;19.40;;;14.30;;
357;SDS011;167;47.558;7.602;2022-12-17T17:58:53;20.57;;;14.87;;
357;SDS011;167;47.558;7.602;2022-12-17T18:01:24;23.33;;;15.00;;
357;SDS011;167;47.558;7.602;2022-12-17T18:03:50;17.23;;;13.17;;
357;SDS011;167;47.558;7.602;2022-12-17T18:06:16;23.10;;;14.17;;
357;SDS011;167;47.558;7.602;2022-12-17T18:08:43;20.50;;;15.80;;
357;SDS011;167;47.558;7.602;2022-12-17T18:11:10;20.80;;;13.53;;
357;SDS011;167;47.558;7.602;2022-12-17T18:13:37;25.27;;;16.70;;
357;SDS011;167;47.558;7.602;2022-12-17T18:18:55;23.70;;;16.03;;
357;SDS011;167;47.558;7.602;2022-12-17T18:21:21;17.63;;;14.20;;